sensor_id;sensor_type;location;lat;lon;timestamp;pressure;altitude;pressure_sealevel;temperature;humidity
23170;BME280;11753;43.144;24.714;2022-08-14T00:00:35;98927.84;;;21.09;100.00
23170;BME280;11753;43.144;24.714;2022-08-14T00:01:35;98918.75;;;21.10;100.00
23170;BME280;11753;43.144;24.714;2022-08-14T00:02:36;98922.47;;;21.09;100.00
23170;BME280;11753;43.144;24.714;2022-08-14T00:03:37;98924.56;;;21.07;100.00
23170;BME280;11753;43.144;24.714;2022-08-14T00:04:38;98921.31;;;21.05;100.00
23170;BME280;11753;43.144;24.714;2022-08-14T00:05:39;98919.69;;;21.04;100.00
23170;BME280;11753;43.144;24.714;2022-08-14T00:06:40;98915.97;;;21.05;100.00
23170;BME280;11753;43.144;24.714;2022-08-14T00:07:41;98914.34;;;21.04;100.00
23170;BME280;11753;43.144;24.714;2022-08-14T00:08:42;98911.78;;;21.09;100.00
23170;BME280;11753;43.144;24.714;2022-08-14T00:09:44;98904.56;;;21.09;100.00
23170;BME280;11753;43.144;24.714;2022-08-14T00:10:45;98903.50;;;21.10;100.00
23170;BME280;11753;43.144;24.714;2022-08-14T00:11:46;98908.16;;;21.15;100.00
23170;BME280;11753;43.144;24.714;2022-08-14T00:12:48;98904.81;;;21.08;100.00
23170;BME280;11753;43.144;24.714;2022-08-14T00:13:49;98905.38;;;21.10;100.00
23170;BME280;11753;43.144;24.714;2022-08-14T00:14:51;98902.34;;;21.06;100.00
23170;BME280;11753;43.144;24.714;2022-08-14T00:15:52;98902.50;;;21.00;100.00
23170;BME280;11753;43.144;24.714;2022-08-14T00:16:56;98905.91;;;20.95;100.00
23170;BME280;11753;43.144;24.714;2022-08-14T00:17:57;98897.94;;;21.00;100.00
23170;BME280;11753;43.144;24.714;2022-08-14T00:18:58;98901.69;;;20.99;100.00
23170;BME280;11753;43.144;24.714;2022-08-14T00:19:59;98897.50;;;21.03;100.00
23170;BME280;11753;43.144;24.714;2022-08-14T00:21:01;98896.31;;;20.99;100.00
23170;BME280;11753;43.144;24.714;2022-08-14T00:22:02;98893.75;;;21.04;100.00
23170;BME280;11753;43.144;24.714;2022-08-14T00:23:04;98897.75;;;21.02;100.00
23170;BME280;11753;43.144;24.714;2022-08-14T00:24:05;98898.31;;;21.04;100.00
23170;BME280;11753;43.144;24.714;2022-08-14T00:25:06;98891.56;;;21.01;100.00
23170;BME280;11753;43.144;24.714;2022-08-14T00:26:07;98889.72;;;21.02;100.00
23170;BME280;11753;43.144;24.714;2022-08-14T00:27:08;98891.78;;;21.00;100.00
23170;BME280;11753;43.144;24.714;2022-08-14T00:28:10;98897.94;;;21.00;100.00
23170;BME280;11753;43.144;24.714;2022-08-14T00:29:11;98899.50;;;20.96;100.00
23170;BME280;11753;43.144;24.714;2022-08-14T00:30:12;98894.38;;;20.95;100.00
23170;BME280;11753;43.144;24.714;2022-08-14T00:31:13;98899.25;;;20.98;100.00
23170;BME280;11753;43.144;24.714;2022-08-14T00:32:14;98896.63;;;20.86;100.00
23170;BME280;11753;43.144;24.714;2022-08-14T00:33:15;98893.34;;;20.84;100.00
23170;BME280;11753;43.144;24.714;2022-08-14T00:34:16;98902.44;;;20.71;100.00
23170;BME280;11753;43.144;24.714;2022-08-14T00:35:16;98891.63;;;20.78;100.00
23170;BME280;11753;43.144;24.714;2022-08-14T00:36:17;98894.53;;;20.76;100.00
23170;BME280;11753;43.144;24.714;2022-08-14T00:37:17;98890.59;;;20.79;100.00
23170;BME280;11753;43.144;24.714;2022-08-14T00:38:18;98891.41;;;20.79;100.00
23170;BME280;11753;43.144;24.714;2022-08-14T00:39:18;98887.56;;;20.75;100.00
23170;BME280;11753;43.144;24.714;2022-08-14T00:40:19;98888.94;;;20.78;100.00
23170;BME280;11753;43.144;24.714;2022-08-14T00:41:20;98889.44;;;20.75;100.00
23170;BME280;11753;43.144;24.714;2022-08-14T00:42:21;98886.28;;;20.78;100.00
23170;BME280;11753;43.144;24.714;2022-08-14T00:43:23;98886.38;;;20.83;100.00
23170;BME280;11753;43.144;24.714;2022-08-14T00:44:23;98893.03;;;20.80;100.00
23170;BME280;11753;43.144;24.714;2022-08-14T00:45:24;98882.91;;;20.82;100.00
23170;BME280;11753;43.144;24.714;2022-08-14T00:46:26;98885.56;;;20.82;100.00
23170;BME280;11753;43.144;24.714;2022-08-14T00:47:27;98888.50;;;20.81;100.00
23170;BME280;11753;43.144;24.714;2022-08-14T00:48:31;98881.06;;;20.71;100.00
23170;BME280;11753;43.144;24.714;2022-08-14T00:49:32;98881.19;;;20.76;100.00
23170;BME280;11753;43.144;24.714;2022-08-14T00:50:33;98881.41;;;20.75;100.00
23170;BME280;11753;43.144;24.714;2022-08-14T00:51:34;98881.97;;;20.77;100.00
23170;BME280;11753;43.144;24.714;2022-08-14T00:52:35;98880.13;;;20.77;100.00
23170;BME280;11753;43.144;24.714;2022-08-14T00:53:36;98877.56;;;20.82;100.00
23170;BME280;11753;43.144;24.714;2022-08-14T00:54:37;98874.06;;;20.82;100.00
23170;BME280;11753;43.144;24.714;2022-08-14T00:55:38;98873.25;;;20.81;100.00
23170;BME280;11753;43.144;24.714;2022-08-14T00:56:41;98867.91;;;20.81;100.00
23170;BME280;11753;43.144;24.714;2022-08-14T00:57:42;98864.56;;;20.74;100.00
23170;BME280;11753;43.144;24.714;2022-08-14T00:58:42;98863.75;;;20.74;100.00
23170;BME280;11753;43.144;24.714;2022-08-14T00:59:43;98866.44;;;20.74;100.00
23170;BME280;11753;43.144;24.714;2022-08-14T01:00:44;98863.84;;;20.79;100.00
23170;BME280;11753;43.144;24.714;2022-08-14T01:01:47;98870.84;;;20.80;100.00
23170;BME280;11753;43.144;24.714;2022-08-14T01:02:48;98862.06;;;20.84;100.00
23170;BME280;11753;43.144;24.714;2022-08-14T01:03:52;98860.81;;;20.87;100.00
23170;BME280;11753;43.144;24.714;2022-08-14T01:04:55;98863.47;;;20.87;100.00
23170;BME280;11753;43.144;24.714;2022-08-14T01:05:57;98863.56;;;20.92;100.00
23170;BME280;11753;43.144;24.714;2022-08-14T01:06:58;98856.28;;;20.87;100.00
23170;BME280;11753;43.144;24.714;2022-08-14T01:08:00;98859.88;;;20.81;100.00
23170;BME280;11753;43.144;24.714;2022-08-14T01:09:02;98855.66;;;20.85;100.00
23170;BME280;11753;43.144;24.714;2022-08-14T01:10:03;98859.41;;;20.84;100.00
23170;BME280;11753;43.144;24.714;2022-08-14T01:11:07;98854.06;;;20.84;100.00
23170;BME280;11753;43.144;24.714;2022-08-14T01:12:08;98853.00;;;20.85;100.00
23170;BME280;11753;43.144;24.714;2022-08-14T01:13:11;98861.75;;;20.81;100.00
23170;BME280;11753;43.144;24.714;2022-08-14T01:14:13;98856.16;;;20.82;100.00
23170;BME280;11753;43.144;24.714;2022-08-14T01:15:15;98856.16;;;20.82;100.00
23170;BME280;11753;43.144;24.714;2022-08-14T01:16:17;98859.41;;;20.84;100.00
23170;BME280;11753;43.144;24.714;2022-08-14T01:17:20;98865.34;;;20.86;100.00
23170;BME280;11753;43.144;24.714;2022-08-14T01:18:22;98863.69;;;20.85;100.00
23170;BME280;11753;43.144;24.714;2022-08-14T01:19:41;98860.56;;;20.88;100.00
23170;BME280;11753;43.144;24.714;2022-08-14T01:21:00;98861.13;;;20.91;100.00
23170;BME280;11753;43.144;24.714;2022-08-14T01:22:05;98855.22;;;20.88;100.00
23170;BME280;11753;43.144;24.714;2022-08-14T01:23:07;98862.75;;;20.92;100.00
23170;BME280;11753;43.144;24.714;2022-08-14T01:24:10;98851.25;;;20.91;100.00
23170;BME280;11753;43.144;24.714;2022-08-14T01:25:14;98852.03;;;20.92;100.00
23170;BME280;11753;43.144;24.714;2022-08-14T01:26:17;98849.19;;;20.81;100.00
23170;BME280;11753;43.144;24.714;2022-08-14T01:27:21;98846.50;;;20.81;100.00
23170;BME280;11753;43.144;24.714;2022-08-14T01:28:22;98853.50;;;20.82;100.00
23170;BME280;11753;43.144;24.714;2022-08-14T01:29:23;98847.22;;;20.77;100.00
23170;BME280;11753;43.144;24.714;2022-08-14T01:30:26;98842.22;;;20.80;100.00
23170;BME280;11753;43.144;24.714;2022-08-14T01:31:28;98838.25;;;20.83;100.00
23170;BME280;11753;43.144;24.714;2022-08-14T01:32:30;98837.44;;;20.82;100.00
23170;BME280;11753;43.144;24.714;2022-08-14T01:33:33;98844.91;;;20.80;100.00
23170;BME280;11753;43.144;24.714;2022-08-14T01:34:34;98839.56;;;20.80;100.00
23170;BME280;11753;43.144;24.714;2022-08-14T01:35:34;98851.97;;;20.86;100.00
23170;BME280;11753;43.144;24.714;2022-08-14T01:36:35;98840.69;;;20.84;100.00
23170;BME280;11753;43.144;24.714;2022-08-14T01:37:37;98839.06;;;20.83;100.00
23170;BME280;11753;43.144;24.714;2022-08-14T01:38:39;98851.38;;;20.84;100.00
23170;BME280;11753;43.144;24.714;2022-08-14T01:39:40;98848.13;;;20.82;100.00
23170;BME280;11753;43.144;24.714;2022-08-14T01:40:42;98846.03;;;20.84;100.00
23170;BME280;11753;43.144;24.714;2022-08-14T01:41:47;98846.03;;;20.84;100.00
23170;BME280;11753;43.144;24.714;2022-08-14T01:42:55;98847.31;;;20.82;100.00
23170;BME280;11753;43.144;24.714;2022-08-14T01:43:59;98856.72;;;20.84;100.00
23170;BME280;11753;43.144;24.714;2022-08-14T01:45:01;98853.50;;;20.82;100.00
23170;BME280;11753;43.144;24.714;2022-08-14T01:46:04;98854.16;;;20.89;99.58
23170;BME280;11753;43.144;24.714;2022-08-14T01:47:11;98851.88;;;20.81;100.00
23170;BME280;11753;43.144;24.714;2022-08-14T01:48:13;98859.31;;;20.79;100.00
23170;BME280;11753;43.144;24.714;2022-08-14T01:49:15;98853.38;;;20.77;100.00
23170;BME280;11753;43.144;24.714;2022-08-14T01:50:16;98858.72;;;20.77;100.00
23170;BME280;11753;43.144;24.714;2022-08-14T01:51:18;98861.06;;;20.74;100.00
23170;BME280;11753;43.144;24.714;2022-08-14T01:52:22;98860.28;;;20.73;100.00
23170;BME280;11753;43.144;24.714;2022-08-14T01:53:25;98857.84;;;20.72;100.00
23170;BME280;11753;43.144;24.714;2022-08-14T01:54:25;98854.44;;;20.76;100.00
23170;BME280;11753;43.144;24.714;2022-08-14T01:55:28;98850.72;;;20.77;100.00
23170;BME280;11753;43.144;24.714;2022-08-14T01:56:31;98851.50;;;20.78;100.00
23170;BME280;11753;43.144;24.714;2022-08-14T01:57:38;98853.97;;;20.79;100.00
23170;BME280;11753;43.144;24.714;2022-08-14T01:58:44;98855.09;;;20.83;100.00
23170;BME280;11753;43.144;24.714;2022-08-14T01:59:47;98855.09;;;20.83;99.84
23170;BME280;11753;43.144;24.714;2022-08-14T02:00:50;98851.31;;;20.79;99.98
23170;BME280;11753;43.144;24.714;2022-08-14T02:01:54;98847.56;;;20.80;100.00
23170;BME280;11753;43.144;24.714;2022-08-14T02:02:56;98848.75;;;20.73;100.00
23170;BME280;11753;43.144;24.714;2022-08-14T02:03:57;98846.78;;;20.68;100.00
23170;BME280;11753;43.144;24.714;2022-08-14T02:04:59;98847.94;;;20.72;100.00
23170;BME280;11753;43.144;24.714;2022-08-14T02:06:00;98856.19;;;20.71;100.00
23170;BME280;11753;43.144;24.714;2022-08-14T02:07:02;98855.63;;;20.69;100.00
23170;BME280;11753;43.144;24.714;2022-08-14T02:08:03;98846.78;;;20.68;100.00
23170;BME280;11753;43.144;24.714;2022-08-14T02:09:07;98853.31;;;20.72;100.00
23170;BME280;11753;43.144;24.714;2022-08-14T02:10:08;98852.56;;;20.77;100.00
23170;BME280;11753;43.144;24.714;2022-08-14T02:11:10;98855.59;;;20.80;100.00
23170;BME280;11753;43.144;24.714;2022-08-14T02:12:38;98852.13;;;20.80;99.94
23170;BME280;11753;43.144;24.714;2022-08-14T02:13:39;98855.09;;;20.83;99.87
23170;BME280;11753;43.144;24.714;2022-08-14T02:14:40;98853.00;;;20.85;99.45
23170;BME280;11753;43.144;24.714;2022-08-14T02:15:41;98851.97;;;20.86;99.55
23170;BME280;11753;43.144;24.714;2022-08-14T02:16:43;98846.50;;;20.81;99.76
23170;BME280;11753;43.144;24.714;2022-08-14T02:17:44;98845.81;;;20.86;99.22
23170;BME280;11753;43.144;24.714;2022-08-14T02:18:45;98840.94;;;20.83;99.40
23170;BME280;11753;43.144;24.714;2022-08-14T02:19:48;98836.50;;;20.88;99.13
23170;BME280;11753;43.144;24.714;2022-08-14T02:20:49;98838.25;;;20.83;99.10
23170;BME280;11753;43.144;24.714;2022-08-14T02:21:51;98828.94;;;20.85;98.80
23170;BME280;11753;43.144;24.714;2022-08-14T02:22:54;98836.50;;;20.88;98.87
23170;BME280;11753;43.144;24.714;2022-08-14T02:23:54;98835.44;;;20.89;99.03
23170;BME280;11753;43.144;24.714;2022-08-14T02:24:55;98824.97;;;20.88;98.97
23170;BME280;11753;43.144;24.714;2022-08-14T02:25:58;98832.19;;;20.87;98.46
23170;BME280;11753;43.144;24.714;2022-08-14T02:27:00;98826.84;;;20.87;98.46
23170;BME280;11753;43.144;24.714;2022-08-14T02:28:00;98820.44;;;20.88;98.63
23170;BME280;11753;43.144;24.714;2022-08-14T02:29:05;98825.22;;;20.86;98.91
23170;BME280;11753;43.144;24.714;2022-08-14T02:30:06;98830.56;;;20.86;98.98
23170;BME280;11753;43.144;24.714;2022-08-14T02:31:07;98826.25;;;20.85;98.95
23170;BME280;11753;43.144;24.714;2022-08-14T02:32:08;98829.66;;;20.81;98.79
23170;BME280;11753;43.144;24.714;2022-08-14T02:33:10;98828.75;;;20.75;99.18
23170;BME280;11753;43.144;24.714;2022-08-14T02:34:12;98830.94;;;20.78;99.07
23170;BME280;11753;43.144;24.714;2022-08-14T02:35:12;98829.31;;;20.77;99.29
23170;BME280;11753;43.144;24.714;2022-08-14T02:36:18;98829.31;;;20.77;99.20
23170;BME280;11753;43.144;24.714;2022-08-14T02:37:18;98832.94;;;20.71;99.47
23170;BME280;11753;43.144;24.714;2022-08-14T02:38:19;98825.50;;;20.73;99.46
23170;BME280;11753;43.144;24.714;2022-08-14T02:39:19;98830.84;;;20.73;99.46
23170;BME280;11753;43.144;24.714;2022-08-14T02:40:20;98826.56;;;20.72;99.30
23170;BME280;11753;43.144;24.714;2022-08-14T02:41:21;98826.06;;;20.75;99.00
23170;BME280;11753;43.144;24.714;2022-08-14T02:42:22;98823.41;;;20.75;99.10
23170;BME280;11753;43.144;24.714;2022-08-14T02:43:24;98818.63;;;20.77;99.14
23170;BME280;11753;43.144;24.714;2022-08-14T02:44:28;98818.63;;;20.77;99.05
23170;BME280;11753;43.144;24.714;2022-08-14T02:45:29;98820.72;;;20.75;99.18
23170;BME280;11753;43.144;24.714;2022-08-14T02:46:34;98819.72;;;20.65;99.33
23170;BME280;11753;43.144;24.714;2022-08-14T02:47:35;98817.28;;;20.63;99.51
23170;BME280;11753;43.144;24.714;2022-08-14T02:48:40;98815.66;;;20.62;99.76
23170;BME280;11753;43.144;24.714;2022-08-14T02:49:41;98814.03;;;20.61;99.92
23170;BME280;11753;43.144;24.714;2022-08-14T02:50:42;98813.22;;;20.60;100.00
23170;BME280;11753;43.144;24.714;2022-08-14T02:51:46;98814.84;;;20.61;100.00
23170;BME280;11753;43.144;24.714;2022-08-14T02:52:47;98815.19;;;20.65;100.00
23170;BME280;11753;43.144;24.714;2022-08-14T02:53:48;98810.97;;;20.69;100.00
23170;BME280;11753;43.144;24.714;2022-08-14T02:54:49;98809.34;;;20.68;100.00
23170;BME280;11753;43.144;24.714;2022-08-14T02:55:51;98806.44;;;20.70;100.00
23170;BME280;11753;43.144;24.714;2022-08-14T02:56:56;98811.31;;;20.73;99.61
23170;BME280;11753;43.144;24.714;2022-08-14T02:57:57;98808.31;;;20.69;99.67
23170;BME280;11753;43.144;24.714;2022-08-14T02:58:58;98802.25;;;20.74;99.69
23170;BME280;11753;43.144;24.714;2022-08-14T03:00:02;98808.88;;;20.71;99.70
23170;BME280;11753;43.144;24.714;2022-08-14T03:01:06;98804.56;;;20.70;99.73
23170;BME280;11753;43.144;24.714;2022-08-14T03:02:07;98808.88;;;20.71;99.87
23170;BME280;11753;43.144;24.714;2022-08-14T03:03:09;98801.44;;;20.73;99.69
23170;BME280;11753;43.144;24.714;2022-08-14T03:04:11;98809.34;;;20.68;99.45
23170;BME280;11753;43.144;24.714;2022-08-14T03:05:12;98802.84;;;20.64;99.75
23170;BME280;11753;43.144;24.714;2022-08-14T03:06:13;98803.69;;;20.65;99.78
23170;BME280;11753;43.144;24.714;2022-08-14T03:07:14;98806.69;;;20.68;99.73
23170;BME280;11753;43.144;24.714;2022-08-14T03:08:16;98802.38;;;20.67;99.67
23170;BME280;11753;43.144;24.714;2022-08-14T03:09:17;98803.44;;;20.66;99.53
23170;BME280;11753;43.144;24.714;2022-08-14T03:10:18;98804.50;;;20.65;100.00
23170;BME280;11753;43.144;24.714;2022-08-14T03:11:19;98799.72;;;20.67;99.59
23170;BME280;11753;43.144;24.714;2022-08-14T03:12:21;98807.75;;;20.67;99.71
23170;BME280;11753;43.144;24.714;2022-08-14T03:13:21;98800.84;;;20.71;99.38
23170;BME280;11753;43.144;24.714;2022-08-14T03:14:23;98800.41;;;20.63;99.44
23170;BME280;11753;43.144;24.714;2022-08-14T03:15:25;98803.81;;;20.58;99.89
23170;BME280;11753;43.144;24.714;2022-08-14T03:16:27;98800.66;;;20.61;99.70
23170;BME280;11753;43.144;24.714;2022-08-14T03:17:35;98808.81;;;20.54;100.00
23170;BME280;11753;43.144;24.714;2022-08-14T03:18:37;98810.94;;;20.52;100.00
23170;BME280;11753;43.144;24.714;2022-08-14T03:19:41;98807.19;;;20.53;100.00
23170;BME280;11753;43.144;24.714;2022-08-14T03:20:42;98808.81;;;20.54;100.00
23170;BME280;11753;43.144;24.714;2022-08-14T03:21:43;98816.50;;;20.51;100.00
23170;BME280;11753;43.144;24.714;2022-08-14T03:22:44;98816.03;;;20.54;100.00
23170;BME280;11753;43.144;24.714;2022-08-14T03:23:47;98819.75;;;20.53;100.00
23170;BME280;11753;43.144;24.714;2022-08-14T03:24:47;98821.38;;;20.54;100.00
23170;BME280;11753;43.144;24.714;2022-08-14T03:25:48;98824.06;;;20.54;100.00
23170;BME280;11753;43.144;24.714;2022-08-14T03:26:48;98821.94;;;20.56;100.00
23170;BME280;11753;43.144;24.714;2022-08-14T03:27:50;98818.22;;;20.57;100.00
23170;BME280;11753;43.144;24.714;2022-08-14T03:28:51;98818.69;;;20.54;100.00
23170;BME280;11753;43.144;24.714;2022-08-14T03:29:52;98824.75;;;20.49;100.00
23170;BME280;11753;43.144;24.714;2022-08-14T03:30:54;98815.91;;;20.49;100.00
23170;BME280;11753;43.144;24.714;2022-08-14T03:31:54;98830.44;;;20.53;100.00
23170;BME280;11753;43.144;24.714;2022-08-14T03:32:56;98833.69;;;20.55;100.00
23170;BME280;11753;43.144;24.714;2022-08-14T03:33:57;98832.19;;;20.59;100.00
23170;BME280;11753;43.144;24.714;2022-08-14T03:34:58;98830.56;;;20.58;100.00
23170;BME280;11753;43.144;24.714;2022-08-14T03:35:59;98836.34;;;20.55;100.00
23170;BME280;11753;43.144;24.714;2022-08-14T03:37:00;98829.88;;;20.51;100.00
23170;BME280;11753;43.144;24.714;2022-08-14T03:38:05;98829.75;;;20.57;100.00
23170;BME280;11753;43.144;24.714;2022-08-14T03:39:08;98836.84;;;20.52;100.00
23170;BME280;11753;43.144;24.714;2022-08-14T03:40:10;98825.00;;;20.48;100.00
23170;BME280;11753;43.144;24.714;2022-08-14T03:41:12;98831.84;;;20.44;100.00
23170;BME280;11753;43.144;24.714;2022-08-14T03:42:15;98826.50;;;20.44;100.00
23170;BME280;11753;43.144;24.714;2022-08-14T03:43:16;98826.59;;;20.49;100.00
23170;BME280;11753;43.144;24.714;2022-08-14T03:44:17;98832.06;;;20.42;100.00
23170;BME280;11753;43.144;24.714;2022-08-14T03:45:18;98829.63;;;20.41;100.00
23170;BME280;11753;43.144;24.714;2022-08-14T03:46:19;98836.97;;;20.45;100.00
23170;BME280;11753;43.144;24.714;2022-08-14T03:47:21;98835.78;;;20.41;100.00
23170;BME280;11753;43.144;24.714;2022-08-14T03:48:22;98835.69;;;20.48;100.00
23170;BME280;11753;43.144;24.714;2022-08-14T03:49:23;98835.69;;;20.48;100.00
23170;BME280;11753;43.144;24.714;2022-08-14T03:50:25;98842.66;;;20.49;100.00
23170;BME280;11753;43.144;24.714;2022-08-14T03:51:26;98836.84;;;20.52;100.00
23170;BME280;11753;43.144;24.714;2022-08-14T03:52:30;98836.72;;;20.58;100.00
23170;BME280;11753;43.144;24.714;2022-08-14T03:53:33;98841.81;;;20.60;100.00
23170;BME280;11753;43.144;24.714;2022-08-14T03:54:37;98834.59;;;20.60;100.00
23170;BME280;11753;43.144;24.714;2022-08-14T03:55:45;98846.13;;;20.61;100.00
23170;BME280;11753;43.144;24.714;2022-08-14T03:56:46;98840.75;;;20.61;99.83
23170;BME280;11753;43.144;24.714;2022-08-14T03:57:47;98844.25;;;20.61;100.00
23170;BME280;11753;43.144;24.714;2022-08-14T03:58:49;98840.06;;;20.66;99.52
23170;BME280;11753;43.144;24.714;2022-08-14T03:59:50;98835.19;;;20.63;99.90
23170;BME280;11753;43.144;24.714;2022-08-14T04:00:51;98854.50;;;20.65;99.68
23170;BME280;11753;43.144;24.714;2022-08-14T04:01:52;98842.25;;;20.69;99.88
23170;BME280;11753;43.144;24.714;2022-08-14T04:02:55;98836.09;;;20.68;99.91
23170;BME280;11753;43.144;24.714;2022-08-14T04:03:56;98831.81;;;20.67;99.81
23170;BME280;11753;43.144;24.714;2022-08-14T04:04:58;98834.00;;;20.70;99.92
23170;BME280;11753;43.144;24.714;2022-08-14T04:05:58;98830.25;;;20.71;99.68
23170;BME280;11753;43.144;24.714;2022-08-14T04:06:59;98834.00;;;20.70;99.59
23170;BME280;11753;43.144;24.714;2022-08-14T04:08:00;98835.59;;;20.71;99.67
23170;BME280;11753;43.144;24.714;2022-08-14T04:09:00;98844.78;;;20.75;99.53
23170;BME280;11753;43.144;24.714;2022-08-14T04:10:02;98840.94;;;20.71;99.85
23170;BME280;11753;43.144;24.714;2022-08-14T04:11:03;98841.78;;;20.72;99.64
23170;BME280;11753;43.144;24.714;2022-08-14T04:12:04;98844.22;;;20.73;99.77
23170;BME280;11753;43.144;24.714;2022-08-14T04:13:05;98844.31;;;20.78;99.63
23170;BME280;11753;43.144;24.714;2022-08-14T04:14:06;98841.97;;;20.82;99.41
23170;BME280;11753;43.144;24.714;2022-08-14T04:15:07;98839.06;;;20.83;99.20
23170;BME280;11753;43.144;24.714;2022-08-14T04:16:09;98839.56;;;20.80;98.86
23170;BME280;11753;43.144;24.714;2022-08-14T04:17:10;98840.00;;;20.77;99.12
23170;BME280;11753;43.144;24.714;2022-08-14T04:18:11;98840.13;;;20.82;98.84
23170;BME280;11753;43.144;24.714;2022-08-14T04:19:12;98841.16;;;20.81;98.62
23170;BME280;11753;43.144;24.714;2022-08-14T04:20:19;98838.25;;;20.83;98.54
23170;BME280;11753;43.144;24.714;2022-08-14T04:21:22;98841.41;;;20.80;98.74
23170;BME280;11753;43.144;24.714;2022-08-14T04:22:23;98842.69;;;20.77;98.54
23170;BME280;11753;43.144;24.714;2022-08-14T04:23:25;98849.91;;;20.77;98.50
23170;BME280;11753;43.144;24.714;2022-08-14T04:24:25;98845.34;;;20.77;98.70
23170;BME280;11753;43.144;24.714;2022-08-14T04:25:26;98857.78;;;20.83;98.45
23170;BME280;11753;43.144;24.714;2022-08-14T04:26:29;98852.69;;;20.82;98.36
23170;BME280;11753;43.144;24.714;2022-08-14T04:27:30;98853.00;;;20.85;98.31
23170;BME280;11753;43.144;24.714;2022-08-14T04:28:31;98855.59;;;20.80;98.16
23170;BME280;11753;43.144;24.714;2022-08-14T04:29:32;98858.03;;;20.82;98.19
23170;BME280;11753;43.144;24.714;2022-08-14T04:30:37;98852.44;;;20.83;98.15
23170;BME280;11753;43.144;24.714;2022-08-14T04:31:38;98857.31;;;20.86;98.31
23170;BME280;11753;43.144;24.714;2022-08-14T04:32:39;98859.19;;;20.86;98.36
23170;BME280;11753;43.144;24.714;2022-08-14T04:33:40;98856.84;;;20.89;98.06
23170;BME280;11753;43.144;24.714;2022-08-14T04:34:41;98862.19;;;20.89;97.95
23170;BME280;11753;43.144;24.714;2022-08-14T04:35:42;98860.41;;;20.95;97.86
23170;BME280;11753;43.144;24.714;2022-08-14T04:36:43;98851.00;;;20.93;97.49
23170;BME280;11753;43.144;24.714;2022-08-14T04:38:11;98856.00;;;21.01;97.12
23170;BME280;11753;43.144;24.714;2022-08-14T04:42:45;98858.44;;;21.19;95.58
23170;BME280;11753;43.144;24.714;2022-08-14T04:44:05;98864.84;;;21.18;95.41
23170;BME280;11753;43.144;24.714;2022-08-14T04:45:05;98867.53;;;21.18;95.27
23170;BME280;11753;43.144;24.714;2022-08-14T04:47:06;98866.22;;;21.21;95.00
23170;BME280;11753;43.144;24.714;2022-08-14T04:48:26;98868.19;;;21.25;94.88
23170;BME280;11753;43.144;24.714;2022-08-14T04:49:27;98868.19;;;21.25;94.86
23170;BME280;11753;43.144;24.714;2022-08-14T04:50:28;98874.72;;;21.29;94.31
23170;BME280;11753;43.144;24.714;2022-08-14T04:51:28;98869.38;;;21.29;94.49
23170;BME280;11753;43.144;24.714;2022-08-14T04:52:28;98864.59;;;21.31;94.47
23170;BME280;11753;43.144;24.714;2022-08-14T04:53:30;98874.56;;;21.36;93.64
23170;BME280;11753;43.144;24.714;2022-08-14T04:54:31;98873.19;;;21.33;93.87
23170;BME280;11753;43.144;24.714;2022-08-14T04:55:31;98871.31;;;21.34;93.96
23170;BME280;11753;43.144;24.714;2022-08-14T04:56:33;98866.06;;;21.27;94.29
23170;BME280;11753;43.144;24.714;2022-08-14T04:57:33;98865.16;;;21.33;94.11
23170;BME280;11753;43.144;24.714;2022-08-14T04:58:35;98870.03;;;21.36;93.93
23170;BME280;11753;43.144;24.714;2022-08-14T04:59:36;98867.44;;;21.41;93.66
23170;BME280;11753;43.144;24.714;2022-08-14T05:00:37;98864.75;;;21.41;93.38
23170;BME280;11753;43.144;24.714;2022-08-14T05:01:40;98869.84;;;21.43;93.24
23170;BME280;11753;43.144;24.714;2022-08-14T05:02:44;98861.03;;;21.42;93.44
23170;BME280;11753;43.144;24.714;2022-08-14T05:03:45;98871.50;;;21.44;92.98
23170;BME280;11753;43.144;24.714;2022-08-14T05:04:46;98865.66;;;21.47;93.12
23170;BME280;11753;43.144;24.714;2022-08-14T05:05:47;98863.78;;;21.48;92.93
23170;BME280;11753;43.144;24.714;2022-08-14T05:06:49;98862.72;;;21.49;93.09
23170;BME280;11753;43.144;24.714;2022-08-14T05:07:50;98861.69;;;21.50;92.76
23170;BME280;11753;43.144;24.714;2022-08-14T05:08:51;98861.13;;;21.48;92.24
23170;BME280;11753;43.144;24.714;2022-08-14T05:09:52;98861.22;;;21.53;91.91
23170;BME280;11753;43.144;24.714;2022-08-14T05:10:54;98860.31;;;21.47;92.48
23170;BME280;11753;43.144;24.714;2022-08-14T05:11:55;98859.00;;;21.50;92.45
23170;BME280;11753;43.144;24.714;2022-08-14T05:12:56;98856.91;;;21.52;92.52
23170;BME280;11753;43.144;24.714;2022-08-14T05:13:58;98861.78;;;21.55;92.51
23170;BME280;11753;43.144;24.714;2022-08-14T05:15:00;98859.50;;;21.47;92.86
23170;BME280;11753;43.144;24.714;2022-08-14T05:16:02;98859.25;;;21.48;92.85
23170;BME280;11753;43.144;24.714;2022-08-14T05:17:03;98856.66;;;21.53;92.87
23170;BME280;11753;43.144;24.714;2022-08-14T05:18:07;98858.53;;;21.53;93.27
23170;BME280;11753;43.144;24.714;2022-08-14T05:19:14;98859.09;;;21.55;93.16
23170;BME280;11753;43.144;24.714;2022-08-14T05:20:15;98862.31;;;21.57;93.23
23170;BME280;11753;43.144;24.714;2022-08-14T05:21:15;98860.72;;;21.56;92.57
23170;BME280;11753;43.144;24.714;2022-08-14T05:22:16;98864.84;;;21.47;92.61
23170;BME280;11753;43.144;24.714;2022-08-14T05:23:19;98861.59;;;21.45;93.01
23170;BME280;11753;43.144;24.714;2022-08-14T05:24:20;98863.22;;;21.46;93.36
23170;BME280;11753;43.144;24.714;2022-08-14T05:25:21;98861.28;;;21.41;93.83
23170;BME280;11753;43.144;24.714;2022-08-14T05:26:22;98858.34;;;21.42;93.78
23170;BME280;11753;43.144;24.714;2022-08-14T05:27:22;98873.13;;;21.45;93.97